DLH203 EGLL-EBCI
Flight info
| Callsign | DLH203 |
|---|---|
| Flight time | N/A |
| Altitude | 23000 |
| Route | DET L6 DVR L9 KONAN/N0423F190 L607 KOK |
| Aircraft | A359/H-SDE2E3GHIJ3J4J5LM1ORWXY/LB1D1 |
Departure
| Time | 2026-05-05 11:25 |
|---|---|
| Airport | London Heathrow Airport (EGLL) |
Arrival
| Time | N/A |
|---|---|
| Airport | Brussels South Charleroi Airport (EBCI) |
| Time | Latitude | Longitude | Altitude | Speed | Heading |
|---|---|---|---|---|---|
| 2026-05-05 10:38 | 51.47051 | -0.48014 | 92 ft | 0 kts | 269° |
| 2026-05-05 11:10 | 51.47051 | -0.47999 | 95 ft | 8 kts | 269° |
| 2026-05-05 11:10 | 51.47052 | -0.47967 | 93 ft | 9 kts | 269° |
| 2026-05-05 11:11 | 51.47052 | -0.47936 | 94 ft | 8 kts | 269° |
| 2026-05-05 11:11 | 51.47052 | -0.47912 | 95 ft | 8 kts | 253° |
| 2026-05-05 11:11 | 51.47057 | -0.47891 | 92 ft | 9 kts | 220° |
| 2026-05-05 11:11 | 51.47071 | -0.47877 | 92 ft | 8 kts | 195° |
| 2026-05-05 11:12 | 51.47090 | -0.47871 | 91 ft | 9 kts | 183° |
| 2026-05-05 11:12 | 51.47105 | -0.47870 | 92 ft | 78 kts | 179° |
| 2026-05-05 11:19 | 51.47081 | -0.47871 | 90 ft | 12 kts | 181° |
| 2026-05-05 11:20 | 51.46979 | -0.47869 | 91 ft | 17 kts | 179° |
| 2026-05-05 11:20 | 51.46849 | -0.47869 | 91 ft | 19 kts | 180° |
| 2026-05-05 11:20 | 51.46759 | -0.47900 | 95 ft | 10 kts | 233° |
| 2026-05-05 11:20 | 51.46745 | -0.47996 | 92 ft | 8 kts | 267° |
| 2026-05-05 11:21 | 51.46744 | -0.48066 | 92 ft | 3 kts | 269° |
| 2026-05-05 11:21 | 51.46744 | -0.48067 | 92 ft | 0 kts | 269° |
| 2026-05-05 11:22 | 51.46744 | -0.48075 | 90 ft | 5 kts | 269° |
| 2026-05-05 11:22 | 51.46743 | -0.48163 | 90 ft | 10 kts | 269° |
| 2026-05-05 11:22 | 51.46743 | -0.48292 | 92 ft | 13 kts | 270° |
| 2026-05-05 11:23 | 51.46742 | -0.48460 | 90 ft | 16 kts | 268° |
| 2026-05-05 11:23 | 51.46738 | -0.48655 | 90 ft | 17 kts | 267° |
| 2026-05-05 11:23 | 51.46693 | -0.48744 | 95 ft | 9 kts | 193° |
| 2026-05-05 11:23 | 51.46625 | -0.48756 | 93 ft | 11 kts | 193° |
| 2026-05-05 11:24 | 51.46545 | -0.48785 | 91 ft | 12 kts | 180° |
| 2026-05-05 11:24 | 51.46482 | -0.48715 | 95 ft | 11 kts | 112° |
| 2026-05-05 11:24 | 51.46476 | -0.48587 | 94 ft | 12 kts | 91° |
| 2026-05-05 11:24 | 51.46475 | -0.48445 | 94 ft | 16 kts | 90° |
| 2026-05-05 11:25 | 51.46477 | -0.47915 | 93 ft | 84 kts | 89° |
| 2026-05-05 11:25 | 51.46485 | -0.46607 | 96 ft | 149 kts | 90° |
| 2026-05-05 11:25 | 51.46495 | -0.44800 | 552 ft | 167 kts | 86° |
| 2026-05-05 11:25 | 51.46469 | -0.42994 | 1181 ft | 160 kts | 92° |
| 2026-05-05 11:26 | 51.46080 | -0.41253 | 1385 ft | 173 kts | 114° |
| 2026-05-05 11:26 | 51.45471 | -0.39476 | 1488 ft | 192 kts | 115° |
| 2026-05-05 11:26 | 51.44831 | -0.37484 | 1667 ft | 210 kts | 111° |
| 2026-05-05 11:26 | 51.44256 | -0.35227 | 1880 ft | 228 kts | 106° |
| 2026-05-05 11:27 | 51.43708 | -0.32733 | 2089 ft | 246 kts | 106° |
| 2026-05-05 11:27 | 51.43151 | -0.30120 | 2564 ft | 252 kts | 106° |
| 2026-05-05 11:27 | 51.42679 | -0.27583 | 3136 ft | 252 kts | 101° |
| 2026-05-05 11:27 | 51.42290 | -0.24850 | 3787 ft | 252 kts | 99° |
| 2026-05-05 11:28 | 51.41921 | -0.22112 | 4423 ft | 253 kts | 100° |
| 2026-05-05 11:28 | 51.41548 | -0.19352 | 5017 ft | 255 kts | 100° |
| 2026-05-05 11:28 | 51.41165 | -0.16551 | 5544 ft | 260 kts | 101° |
| 2026-05-05 11:28 | 51.40777 | -0.13706 | 5721 ft | 261 kts | 101° |
| 2026-05-05 11:29 | 51.40382 | -0.10833 | 6058 ft | 267 kts | 101° |
| 2026-05-05 11:29 | 51.39976 | -0.07912 | 6585 ft | 270 kts | 102° |
| 2026-05-05 11:29 | 51.39567 | -0.04964 | 7137 ft | 272 kts | 102° |
| 2026-05-05 11:29 | 51.39155 | -0.01999 | 7665 ft | 275 kts | 102° |
| 2026-05-05 11:30 | 51.38737 | 0.01004 | 8213 ft | 278 kts | 102° |
| 2026-05-05 11:30 | 51.38315 | 0.04037 | 8759 ft | 281 kts | 102° |
| 2026-05-05 11:30 | 51.37886 | 0.07103 | 9300 ft | 284 kts | 102° |
| 2026-05-05 11:30 | 51.37456 | 0.10204 | 9849 ft | 287 kts | 102° |
| 2026-05-05 11:31 | 51.37016 | 0.13345 | 10259 ft | 294 kts | 102° |
| 2026-05-05 11:31 | 51.36556 | 0.16607 | 10497 ft | 307 kts | 102° |
| 2026-05-05 11:31 | 51.36079 | 0.20000 | 10753 ft | 319 kts | 102° |
| 2026-05-05 11:31 | 51.35581 | 0.23525 | 11004 ft | 331 kts | 102° |
| 2026-05-05 11:32 | 51.35065 | 0.27170 | 11242 ft | 342 kts | 102° |
| 2026-05-05 11:32 | 51.34529 | 0.30946 | 11452 ft | 354 kts | 102° |
| 2026-05-05 11:32 | 51.33973 | 0.34853 | 11756 ft | 366 kts | 102° |
| 2026-05-05 11:32 | 51.33400 | 0.38873 | 11907 ft | 378 kts | 102° |
| 2026-05-05 11:33 | 51.32807 | 0.43017 | 12202 ft | 385 kts | 102° |
| 2026-05-05 11:33 | 51.32215 | 0.47146 | 12621 ft | 387 kts | 102° |
| 2026-05-05 11:33 | 51.31612 | 0.51362 | 13055 ft | 390 kts | 102° |
| 2026-05-05 11:33 | 51.31003 | 0.55590 | 13508 ft | 391 kts | 102° |
| 2026-05-05 11:34 | 51.30390 | 0.59826 | 13921 ft | 394 kts | 102° |
| 2026-05-05 11:34 | 51.29733 | 0.64093 | 14291 ft | 396 kts | 104° |
| 2026-05-05 11:34 | 51.28977 | 0.68331 | 14653 ft | 399 kts | 106° |
| 2026-05-05 11:34 | 51.28168 | 0.72577 | 15009 ft | 401 kts | 107° |
| 2026-05-05 11:35 | 51.27344 | 0.76840 | 15378 ft | 403 kts | 107° |
| 2026-05-05 11:35 | 51.26615 | 0.80633 | 15698 ft | 405 kts | 107° |
| 2026-05-05 11:35 | 51.25781 | 0.85030 | 16068 ft | 408 kts | 106° |
| 2026-05-05 11:35 | 51.24966 | 0.89379 | 16394 ft | 410 kts | 106° |
| 2026-05-05 11:36 | 51.24153 | 0.93754 | 16750 ft | 413 kts | 106° |
| 2026-05-05 11:36 | 51.23337 | 0.98157 | 17111 ft | 415 kts | 106° |
| 2026-05-05 11:36 | 51.22523 | 1.02546 | 17782 ft | 408 kts | 106° |
| 2026-05-05 11:36 | 51.21727 | 1.06832 | 18596 ft | 398 kts | 107° |
| 2026-05-05 11:37 | 51.20948 | 1.11015 | 19351 ft | 388 kts | 107° |
| 2026-05-05 11:37 | 51.20189 | 1.15082 | 20142 ft | 378 kts | 107° |
| 2026-05-05 11:37 | 51.19443 | 1.19067 | 20796 ft | 373 kts | 108° |
| 2026-05-05 11:37 | 51.18699 | 1.23031 | 21251 ft | 374 kts | 108° |
| 2026-05-05 11:38 | 51.17950 | 1.27004 | 21668 ft | 375 kts | 108° |
| 2026-05-05 11:38 | 51.17198 | 1.30983 | 22067 ft | 376 kts | 108° |
| 2026-05-05 11:38 | 51.16523 | 1.35022 | 22447 ft | 379 kts | 102° |
| 2026-05-05 11:38 | 51.16142 | 1.39191 | 22825 ft | 382 kts | 98° |
| 2026-05-05 11:39 | 51.15865 | 1.43416 | 22988 ft | 384 kts | 97° |
| 2026-05-05 11:39 | 51.15643 | 1.47652 | 22998 ft | 384 kts | 96° |
| 2026-05-05 11:39 | 51.15449 | 1.51902 | 22988 ft | 385 kts | 96° |
| 2026-05-05 11:39 | 51.15262 | 1.56151 | 22987 ft | 385 kts | 96° |
| 2026-05-05 11:40 | 51.15072 | 1.60399 | 22986 ft | 384 kts | 96° |
| 2026-05-05 11:40 | 51.14875 | 1.64639 | 22984 ft | 384 kts | 96° |
| 2026-05-05 11:40 | 51.14672 | 1.68877 | 22982 ft | 384 kts | 96° |
| 2026-05-05 11:40 | 51.14461 | 1.73121 | 22981 ft | 384 kts | 96° |
| 2026-05-05 11:41 | 51.14248 | 1.77357 | 22979 ft | 384 kts | 96° |
| 2026-05-05 11:41 | 51.14033 | 1.81604 | 22979 ft | 384 kts | 96° |
| 2026-05-05 11:41 | 51.13816 | 1.85837 | 22976 ft | 384 kts | 96° |
| 2026-05-05 11:41 | 51.13598 | 1.90083 | 22977 ft | 384 kts | 96° |
| 2026-05-05 11:42 | 51.13415 | 1.93597 | 22973 ft | 384 kts | 96° |
| 2026-05-05 11:42 | 51.13287 | 1.96053 | 22978 ft | 384 kts | 96° |
| 2026-05-05 11:42 | 51.13065 | 2.00289 | 22978 ft | 384 kts | 96° |
| 2026-05-05 11:42 | 51.12842 | 2.04529 | 22979 ft | 384 kts | 96° |
| 2026-05-05 11:43 | 51.12617 | 2.08759 | 22966 ft | 384 kts | 97° |
| 2026-05-05 11:43 | 51.12394 | 2.12931 | 22721 ft | 383 kts | 96° |
| 2026-05-05 11:43 | 51.12163 | 2.17206 | 22441 ft | 382 kts | 97° |
| 2026-05-05 11:43 | 51.11935 | 2.21408 | 22184 ft | 380 kts | 97° |
| 2026-05-05 11:44 | 51.11679 | 2.26103 | 21886 ft | 379 kts | 97° |
| 2026-05-05 11:44 | 51.10759 | 2.42667 | 20857 ft | 379 kts | 96° |
| 2026-05-05 11:44 | 51.09769 | 2.60080 | 20379 ft | 385 kts | 97° |
| 2026-05-05 11:44 | 51.08132 | 2.76471 | 19452 ft | 364 kts | 102° |
| 2026-05-05 11:45 | 51.06254 | 2.91951 | 18512 ft | 359 kts | 102° |
| 2026-05-05 11:45 | 51.04379 | 3.07308 | 17472 ft | 354 kts | 102° |
| 2026-05-05 11:45 | 51.02463 | 3.22719 | 15918 ft | 355 kts | 102° |
| 2026-05-05 11:45 | 50.98101 | 3.36212 | 13469 ft | 370 kts | 148° |
| 2026-05-05 11:46 | 50.88141 | 3.40634 | 10880 ft | 380 kts | 172° |
| 2026-05-05 11:46 | 50.77937 | 3.42602 | 9435 ft | 355 kts | 172° |
| 2026-05-05 11:46 | 50.68049 | 3.44437 | 6940 ft | 360 kts | 172° |
| 2026-05-05 11:46 | 50.57914 | 3.46144 | 4367 ft | 361 kts | 172° |
| 2026-05-05 11:47 | 50.50476 | 3.48117 | 2977 ft | 341 kts | 157° |